Alorton, Illinois
Current Conditions -  °F | °C
As of 5:53 AM on Friday 31 Oct 2014 (Local Time) from KCPS Reporting Station
Overcast Overcast  
Wind Chill: 45°   Ceiling: 7000
Heat Index: 49°   Visibility: 10mi
Dew Point: 44°   Wind: 10mph
Humidity: 83%   Direction: 340°NNW
Pressure: 30.14"   Gusts: NA
Location:  38.5841°N, 90.126°W
Report Text: KCPS 311053Z AUTO 34009KT 10SM OVC070 09/07 A3014 RMK AO2 SLP206 T00940067
Loading
Personal Weather Stations






























Interactive Weather Map
Tropical Storm Tracking
New forecast layout! Learn more

10-Day Weather Forecast

Advertisements
Track Severe Weather on mobile